sensor_id;sensor_type;location;lat;lon;timestamp;temperature;humidity
11079;DHT22;5592;49.234;7.268;2024-01-07T00:01:23;4.30;99.90
11079;DHT22;5592;49.234;7.268;2024-01-07T00:03:49;4.30;99.90
11079;DHT22;5592;49.234;7.268;2024-01-07T00:06:14;4.30;99.90
11079;DHT22;5592;49.234;7.268;2024-01-07T00:08:40;4.30;99.90
11079;DHT22;5592;49.234;7.268;2024-01-07T00:11:05;4.30;99.90
11079;DHT22;5592;49.234;7.268;2024-01-07T00:13:31;4.30;99.90
11079;DHT22;5592;49.234;7.268;2024-01-07T00:15:56;4.30;99.90
11079;DHT22;5592;49.234;7.268;2024-01-07T00:18:22;4.20;99.90
11079;DHT22;5592;49.234;7.268;2024-01-07T00:20:49;4.20;99.90
11079;DHT22;5592;49.234;7.268;2024-01-07T00:23:15;4.10;99.90
11079;DHT22;5592;49.234;7.268;2024-01-07T00:25:40;4.10;99.90
11079;DHT22;5592;49.234;7.268;2024-01-07T00:28:06;4.10;99.90
11079;DHT22;5592;49.234;7.268;2024-01-07T00:30:32;4.10;99.90
11079;DHT22;5592;49.234;7.268;2024-01-07T00:32:57;4.10;99.90
11079;DHT22;5592;49.234;7.268;2024-01-07T00:35:23;4.10;99.90
11079;DHT22;5592;49.234;7.268;2024-01-07T00:37:48;4.10;99.90
11079;DHT22;5592;49.234;7.268;2024-01-07T00:40:14;4.10;99.90
11079;DHT22;5592;49.234;7.268;2024-01-07T00:42:39;4.10;99.90
11079;DHT22;5592;49.234;7.268;2024-01-07T00:45:05;4.10;99.90
11079;DHT22;5592;49.234;7.268;2024-01-07T00:47:31;4.10;99.90
11079;DHT22;5592;49.234;7.268;2024-01-07T00:49:56;4.10;99.90
11079;DHT22;5592;49.234;7.268;2024-01-07T00:52:22;4.10;99.90
11079;DHT22;5592;49.234;7.268;2024-01-07T00:54:48;4.00;99.90
11079;DHT22;5592;49.234;7.268;2024-01-07T00:57:14;4.10;99.90
11079;DHT22;5592;49.234;7.268;2024-01-07T00:59:39;4.10;99.90
11079;DHT22;5592;49.234;7.268;2024-01-07T01:02:05;4.00;99.90
11079;DHT22;5592;49.234;7.268;2024-01-07T01:04:30;4.00;99.90
11079;DHT22;5592;49.234;7.268;2024-01-07T01:06:56;4.00;99.90
11079;DHT22;5592;49.234;7.268;2024-01-07T01:09:21;4.00;99.90
11079;DHT22;5592;49.234;7.268;2024-01-07T01:11:47;3.90;99.90
11079;DHT22;5592;49.234;7.268;2024-01-07T01:14:13;3.90;99.90
11079;DHT22;5592;49.234;7.268;2024-01-07T01:16:38;3.80;99.90
11079;DHT22;5592;49.234;7.268;2024-01-07T01:19:04;3.90;99.90
11079;DHT22;5592;49.234;7.268;2024-01-07T01:21:29;3.90;99.90
11079;DHT22;5592;49.234;7.268;2024-01-07T01:23:55;3.90;99.90
11079;DHT22;5592;49.234;7.268;2024-01-07T01:26:20;3.90;99.90
11079;DHT22;5592;49.234;7.268;2024-01-07T01:28:46;3.90;99.90
11079;DHT22;5592;49.234;7.268;2024-01-07T01:31:13;3.90;99.90
11079;DHT22;5592;49.234;7.268;2024-01-07T01:33:40;3.90;99.90
11079;DHT22;5592;49.234;7.268;2024-01-07T01:36:05;3.80;99.90
11079;DHT22;5592;49.234;7.268;2024-01-07T01:38:33;3.80;99.90
11079;DHT22;5592;49.234;7.268;2024-01-07T01:40:58;3.80;99.90
11079;DHT22;5592;49.234;7.268;2024-01-07T01:43:26;3.70;99.90
11079;DHT22;5592;49.234;7.268;2024-01-07T01:45:53;3.70;99.90
11079;DHT22;5592;49.234;7.268;2024-01-07T01:48:19;3.70;99.90
11079;DHT22;5592;49.234;7.268;2024-01-07T01:50:46;3.60;99.90
11079;DHT22;5592;49.234;7.268;2024-01-07T01:53:12;3.60;99.90
11079;DHT22;5592;49.234;7.268;2024-01-07T01:55:38;3.60;99.90
11079;DHT22;5592;49.234;7.268;2024-01-07T01:58:04;3.60;99.90
11079;DHT22;5592;49.234;7.268;2024-01-07T02:00:30;3.50;99.90
11079;DHT22;5592;49.234;7.268;2024-01-07T02:02:55;3.50;99.90
11079;DHT22;5592;49.234;7.268;2024-01-07T02:05:21;3.50;99.90
11079;DHT22;5592;49.234;7.268;2024-01-07T02:07:47;3.60;99.90
11079;DHT22;5592;49.234;7.268;2024-01-07T02:10:13;3.60;99.90
11079;DHT22;5592;49.234;7.268;2024-01-07T02:12:39;3.60;99.90
11079;DHT22;5592;49.234;7.268;2024-01-07T02:15:07;3.60;99.90
11079;DHT22;5592;49.234;7.268;2024-01-07T02:17:33;3.60;99.90
11079;DHT22;5592;49.234;7.268;2024-01-07T02:19:59;3.70;99.90
11079;DHT22;5592;49.234;7.268;2024-01-07T02:22:24;3.60;99.90
11079;DHT22;5592;49.234;7.268;2024-01-07T02:24:50;3.60;99.90
11079;DHT22;5592;49.234;7.268;2024-01-07T02:27:15;3.60;99.90
11079;DHT22;5592;49.234;7.268;2024-01-07T02:29:41;3.60;99.90
11079;DHT22;5592;49.234;7.268;2024-01-07T02:32:06;3.60;99.90
11079;DHT22;5592;49.234;7.268;2024-01-07T02:34:32;3.60;99.90
11079;DHT22;5592;49.234;7.268;2024-01-07T02:36:57;3.60;99.90
11079;DHT22;5592;49.234;7.268;2024-01-07T02:39:23;3.60;99.90
11079;DHT22;5592;49.234;7.268;2024-01-07T02:41:49;3.60;99.90
11079;DHT22;5592;49.234;7.268;2024-01-07T02:44:15;3.60;99.90
11079;DHT22;5592;49.234;7.268;2024-01-07T02:46:40;3.60;99.90
11079;DHT22;5592;49.234;7.268;2024-01-07T02:49:06;3.60;99.90
11079;DHT22;5592;49.234;7.268;2024-01-07T02:51:31;3.60;99.90
11079;DHT22;5592;49.234;7.268;2024-01-07T02:53:57;3.60;99.90
11079;DHT22;5592;49.234;7.268;2024-01-07T02:56:22;3.50;99.90
11079;DHT22;5592;49.234;7.268;2024-01-07T02:58:48;3.50;99.90
11079;DHT22;5592;49.234;7.268;2024-01-07T03:01:13;3.40;99.90
11079;DHT22;5592;49.234;7.268;2024-01-07T03:03:39;3.40;99.90
11079;DHT22;5592;49.234;7.268;2024-01-07T03:06:04;3.40;99.90
11079;DHT22;5592;49.234;7.268;2024-01-07T03:08:30;3.40;99.90
11079;DHT22;5592;49.234;7.268;2024-01-07T03:10:55;3.40;99.90
11079;DHT22;5592;49.234;7.268;2024-01-07T03:13:21;3.40;99.90
11079;DHT22;5592;49.234;7.268;2024-01-07T03:15:46;3.40;99.90
11079;DHT22;5592;49.234;7.268;2024-01-07T03:18:12;3.40;99.90
11079;DHT22;5592;49.234;7.268;2024-01-07T03:20:37;3.40;99.90
11079;DHT22;5592;49.234;7.268;2024-01-07T03:23:03;3.40;99.90
11079;DHT22;5592;49.234;7.268;2024-01-07T03:25:29;3.40;99.90
11079;DHT22;5592;49.234;7.268;2024-01-07T03:27:54;3.40;99.90
11079;DHT22;5592;49.234;7.268;2024-01-07T03:30:20;3.40;99.90
11079;DHT22;5592;49.234;7.268;2024-01-07T03:32:45;3.40;99.90
11079;DHT22;5592;49.234;7.268;2024-01-07T03:35:11;3.40;99.90
11079;DHT22;5592;49.234;7.268;2024-01-07T03:37:36;3.40;99.90
11079;DHT22;5592;49.234;7.268;2024-01-07T03:40:10;3.40;99.90
11079;DHT22;5592;49.234;7.268;2024-01-07T03:42:36;3.40;99.90
11079;DHT22;5592;49.234;7.268;2024-01-07T03:45:01;3.40;99.90
11079;DHT22;5592;49.234;7.268;2024-01-07T03:47:27;3.40;99.90
11079;DHT22;5592;49.234;7.268;2024-01-07T03:49:52;3.40;99.90
11079;DHT22;5592;49.234;7.268;2024-01-07T03:52:18;3.40;99.90
11079;DHT22;5592;49.234;7.268;2024-01-07T03:54:43;3.40;99.90
11079;DHT22;5592;49.234;7.268;2024-01-07T03:57:09;3.40;99.90
11079;DHT22;5592;49.234;7.268;2024-01-07T03:59:34;3.40;99.90
11079;DHT22;5592;49.234;7.268;2024-01-07T04:02:00;3.40;99.90
11079;DHT22;5592;49.234;7.268;2024-01-07T04:04:25;3.40;99.90
11079;DHT22;5592;49.234;7.268;2024-01-07T04:06:51;3.40;99.90
11079;DHT22;5592;49.234;7.268;2024-01-07T04:09:16;3.40;99.90
11079;DHT22;5592;49.234;7.268;2024-01-07T04:11:42;3.40;99.90
11079;DHT22;5592;49.234;7.268;2024-01-07T04:14:08;3.40;99.90
11079;DHT22;5592;49.234;7.268;2024-01-07T04:16:34;3.40;99.90
11079;DHT22;5592;49.234;7.268;2024-01-07T04:19:00;3.40;99.90
11079;DHT22;5592;49.234;7.268;2024-01-07T04:21:26;3.40;99.90
11079;DHT22;5592;49.234;7.268;2024-01-07T04:23:51;3.40;99.90
11079;DHT22;5592;49.234;7.268;2024-01-07T04:26:17;3.40;99.90
11079;DHT22;5592;49.234;7.268;2024-01-07T04:28:43;3.40;99.90
11079;DHT22;5592;49.234;7.268;2024-01-07T04:31:09;3.40;99.90
11079;DHT22;5592;49.234;7.268;2024-01-07T04:33:35;3.40;99.90
11079;DHT22;5592;49.234;7.268;2024-01-07T04:36:00;3.40;99.90
11079;DHT22;5592;49.234;7.268;2024-01-07T04:38:27;3.40;99.90
11079;DHT22;5592;49.234;7.268;2024-01-07T04:40:52;3.40;99.90
11079;DHT22;5592;49.234;7.268;2024-01-07T04:43:18;3.40;99.90
11079;DHT22;5592;49.234;7.268;2024-01-07T04:45:50;3.40;99.90
11079;DHT22;5592;49.234;7.268;2024-01-07T04:48:16;3.40;99.90
11079;DHT22;5592;49.234;7.268;2024-01-07T04:50:41;3.40;99.90
11079;DHT22;5592;49.234;7.268;2024-01-07T04:53:08;3.40;99.90
11079;DHT22;5592;49.234;7.268;2024-01-07T04:55:33;3.30;99.90
11079;DHT22;5592;49.234;7.268;2024-01-07T04:57:59;3.30;99.90
11079;DHT22;5592;49.234;7.268;2024-01-07T05:00:25;3.30;99.90
11079;DHT22;5592;49.234;7.268;2024-01-07T05:02:50;3.40;99.90
11079;DHT22;5592;49.234;7.268;2024-01-07T05:05:16;3.30;99.90
11079;DHT22;5592;49.234;7.268;2024-01-07T05:07:41;3.30;99.90
11079;DHT22;5592;49.234;7.268;2024-01-07T05:10:07;3.30;99.90
11079;DHT22;5592;49.234;7.268;2024-01-07T05:12:33;3.30;99.90
11079;DHT22;5592;49.234;7.268;2024-01-07T05:14:58;3.30;99.90
11079;DHT22;5592;49.234;7.268;2024-01-07T05:17:24;3.30;99.90
11079;DHT22;5592;49.234;7.268;2024-01-07T05:19:49;3.30;99.90
11079;DHT22;5592;49.234;7.268;2024-01-07T05:22:15;3.30;99.90
11079;DHT22;5592;49.234;7.268;2024-01-07T05:24:40;3.20;99.90
11079;DHT22;5592;49.234;7.268;2024-01-07T05:27:06;3.30;99.90
11079;DHT22;5592;49.234;7.268;2024-01-07T05:29:32;3.30;99.90
11079;DHT22;5592;49.234;7.268;2024-01-07T05:32:01;3.30;99.90
11079;DHT22;5592;49.234;7.268;2024-01-07T05:34:30;3.30;99.90
11079;DHT22;5592;49.234;7.268;2024-01-07T05:36:55;3.30;99.90
11079;DHT22;5592;49.234;7.268;2024-01-07T05:39:21;3.20;99.90
11079;DHT22;5592;49.234;7.268;2024-01-07T05:41:48;3.30;99.90
11079;DHT22;5592;49.234;7.268;2024-01-07T05:44:14;3.20;99.90
11079;DHT22;5592;49.234;7.268;2024-01-07T05:46:39;3.30;99.90
11079;DHT22;5592;49.234;7.268;2024-01-07T05:49:05;3.20;99.90
11079;DHT22;5592;49.234;7.268;2024-01-07T05:51:31;3.20;99.90
11079;DHT22;5592;49.234;7.268;2024-01-07T05:53:57;3.30;99.90
11079;DHT22;5592;49.234;7.268;2024-01-07T05:56:22;3.30;99.90
11079;DHT22;5592;49.234;7.268;2024-01-07T05:58:48;3.30;99.90
11079;DHT22;5592;49.234;7.268;2024-01-07T06:01:19;3.30;99.90
11079;DHT22;5592;49.234;7.268;2024-01-07T06:03:45;3.30;99.90
11079;DHT22;5592;49.234;7.268;2024-01-07T06:06:12;3.30;99.90
11079;DHT22;5592;49.234;7.268;2024-01-07T06:08:38;3.30;99.90
11079;DHT22;5592;49.234;7.268;2024-01-07T06:11:03;3.30;99.90
11079;DHT22;5592;49.234;7.268;2024-01-07T06:13:29;3.30;99.90
11079;DHT22;5592;49.234;7.268;2024-01-07T06:15:55;3.30;99.90
11079;DHT22;5592;49.234;7.268;2024-01-07T06:18:20;3.30;99.90
11079;DHT22;5592;49.234;7.268;2024-01-07T06:20:46;3.30;99.90
11079;DHT22;5592;49.234;7.268;2024-01-07T06:23:11;3.30;99.90
11079;DHT22;5592;49.234;7.268;2024-01-07T06:25:37;3.40;99.90
11079;DHT22;5592;49.234;7.268;2024-01-07T06:28:02;3.40;99.90
11079;DHT22;5592;49.234;7.268;2024-01-07T06:30:28;3.40;99.90
11079;DHT22;5592;49.234;7.268;2024-01-07T06:32:54;3.40;99.90
11079;DHT22;5592;49.234;7.268;2024-01-07T06:35:20;3.40;99.90
11079;DHT22;5592;49.234;7.268;2024-01-07T06:37:46;3.40;99.90
11079;DHT22;5592;49.234;7.268;2024-01-07T06:40:11;3.40;99.90
11079;DHT22;5592;49.234;7.268;2024-01-07T06:42:37;3.40;99.90
11079;DHT22;5592;49.234;7.268;2024-01-07T06:45:03;3.40;99.90
11079;DHT22;5592;49.234;7.268;2024-01-07T06:47:29;3.40;99.90
11079;DHT22;5592;49.234;7.268;2024-01-07T06:49:54;3.40;99.90
11079;DHT22;5592;49.234;7.268;2024-01-07T06:52:20;3.40;99.90
11079;DHT22;5592;49.234;7.268;2024-01-07T06:54:46;3.40;99.90
11079;DHT22;5592;49.234;7.268;2024-01-07T06:57:12;3.40;99.90
11079;DHT22;5592;49.234;7.268;2024-01-07T06:59:37;3.30;99.90
11079;DHT22;5592;49.234;7.268;2024-01-07T07:02:03;3.30;99.90
11079;DHT22;5592;49.234;7.268;2024-01-07T07:04:28;3.30;99.90
11079;DHT22;5592;49.234;7.268;2024-01-07T07:06:54;3.30;99.90
11079;DHT22;5592;49.234;7.268;2024-01-07T07:09:20;3.30;99.90
11079;DHT22;5592;49.234;7.268;2024-01-07T07:11:45;3.30;99.90
11079;DHT22;5592;49.234;7.268;2024-01-07T07:14:11;3.30;99.90
11079;DHT22;5592;49.234;7.268;2024-01-07T07:16:36;3.30;99.90
11079;DHT22;5592;49.234;7.268;2024-01-07T07:19:02;3.30;99.90
11079;DHT22;5592;49.234;7.268;2024-01-07T07:21:27;3.40;99.90
11079;DHT22;5592;49.234;7.268;2024-01-07T07:23:53;3.40;99.90
11079;DHT22;5592;49.234;7.268;2024-01-07T07:26:18;3.30;99.90
11079;DHT22;5592;49.234;7.268;2024-01-07T07:28:44;3.30;99.90
11079;DHT22;5592;49.234;7.268;2024-01-07T07:31:11;3.40;99.90
11079;DHT22;5592;49.234;7.268;2024-01-07T07:33:39;3.30;99.90
11079;DHT22;5592;49.234;7.268;2024-01-07T07:36:05;3.30;99.90
11079;DHT22;5592;49.234;7.268;2024-01-07T07:38:30;3.30;99.90
11079;DHT22;5592;49.234;7.268;2024-01-07T07:40:56;3.30;99.90
11079;DHT22;5592;49.234;7.268;2024-01-07T07:43:22;3.30;99.90
11079;DHT22;5592;49.234;7.268;2024-01-07T07:45:47;3.30;99.90
11079;DHT22;5592;49.234;7.268;2024-01-07T07:48:14;3.30;99.90
11079;DHT22;5592;49.234;7.268;2024-01-07T07:50:40;3.30;99.90
11079;DHT22;5592;49.234;7.268;2024-01-07T07:53:05;3.30;99.90
11079;DHT22;5592;49.234;7.268;2024-01-07T07:55:32;3.30;99.90
11079;DHT22;5592;49.234;7.268;2024-01-07T07:57:57;3.30;99.90
11079;DHT22;5592;49.234;7.268;2024-01-07T08:00:23;3.30;99.90
11079;DHT22;5592;49.234;7.268;2024-01-07T08:02:49;3.30;99.90
11079;DHT22;5592;49.234;7.268;2024-01-07T08:05:15;3.30;99.90
11079;DHT22;5592;49.234;7.268;2024-01-07T08:07:41;3.30;99.90
11079;DHT22;5592;49.234;7.268;2024-01-07T08:10:07;3.30;99.90
11079;DHT22;5592;49.234;7.268;2024-01-07T08:12:33;3.30;99.90
11079;DHT22;5592;49.234;7.268;2024-01-07T08:14:59;3.30;99.90
11079;DHT22;5592;49.234;7.268;2024-01-07T08:17:24;3.30;99.90
11079;DHT22;5592;49.234;7.268;2024-01-07T08:19:50;3.30;99.90
11079;DHT22;5592;49.234;7.268;2024-01-07T08:22:15;3.30;99.90
11079;DHT22;5592;49.234;7.268;2024-01-07T08:24:41;3.30;99.90
11079;DHT22;5592;49.234;7.268;2024-01-07T08:27:08;3.30;99.90
11079;DHT22;5592;49.234;7.268;2024-01-07T08:29:33;3.30;99.90
11079;DHT22;5592;49.234;7.268;2024-01-07T08:31:59;3.30;99.90
11079;DHT22;5592;49.234;7.268;2024-01-07T08:34:25;3.30;99.90
11079;DHT22;5592;49.234;7.268;2024-01-07T08:36:50;3.30;99.90
11079;DHT22;5592;49.234;7.268;2024-01-07T08:39:16;3.30;99.90
11079;DHT22;5592;49.234;7.268;2024-01-07T08:41:41;3.30;99.90
11079;DHT22;5592;49.234;7.268;2024-01-07T08:44:07;3.30;99.90
11079;DHT22;5592;49.234;7.268;2024-01-07T08:46:36;3.30;99.90
11079;DHT22;5592;49.234;7.268;2024-01-07T08:49:02;3.40;99.90
11079;DHT22;5592;49.234;7.268;2024-01-07T08:51:27;3.40;99.90
11079;DHT22;5592;49.234;7.268;2024-01-07T08:53:54;3.40;99.90
11079;DHT22;5592;49.234;7.268;2024-01-07T08:56:20;3.40;99.90
11079;DHT22;5592;49.234;7.268;2024-01-07T08:58:46;3.40;99.90
11079;DHT22;5592;49.234;7.268;2024-01-07T09:01:12;3.40;99.90
11079;DHT22;5592;49.234;7.268;2024-01-07T09:03:39;3.40;99.90
11079;DHT22;5592;49.234;7.268;2024-01-07T09:06:05;3.40;99.90
11079;DHT22;5592;49.234;7.268;2024-01-07T09:08:31;3.50;99.90
11079;DHT22;5592;49.234;7.268;2024-01-07T09:10:57;3.50;99.90
11079;DHT22;5592;49.234;7.268;2024-01-07T09:13:22;3.50;99.90
11079;DHT22;5592;49.234;7.268;2024-01-07T09:15:48;3.50;99.90
11079;DHT22;5592;49.234;7.268;2024-01-07T09:18:13;3.40;99.90
11079;DHT22;5592;49.234;7.268;2024-01-07T09:20:39;3.50;99.90
11079;DHT22;5592;49.234;7.268;2024-01-07T09:23:04;3.50;99.90
11079;DHT22;5592;49.234;7.268;2024-01-07T09:25:30;3.60;99.90
11079;DHT22;5592;49.234;7.268;2024-01-07T09:27:56;3.60;99.90
11079;DHT22;5592;49.234;7.268;2024-01-07T09:30:21;3.70;99.90
11079;DHT22;5592;49.234;7.268;2024-01-07T09:32:47;3.70;99.90
11079;DHT22;5592;49.234;7.268;2024-01-07T09:35:12;3.70;99.90
11079;DHT22;5592;49.234;7.268;2024-01-07T09:37:38;3.60;99.90
11079;DHT22;5592;49.234;7.268;2024-01-07T09:40:04;3.60;99.90
11079;DHT22;5592;49.234;7.268;2024-01-07T09:42:31;3.70;99.90
11079;DHT22;5592;49.234;7.268;2024-01-07T09:45:04;3.80;99.90
11079;DHT22;5592;49.234;7.268;2024-01-07T09:47:30;3.80;99.90
11079;DHT22;5592;49.234;7.268;2024-01-07T09:49:56;3.80;99.90
11079;DHT22;5592;49.234;7.268;2024-01-07T09:52:22;3.80;99.90
11079;DHT22;5592;49.234;7.268;2024-01-07T09:54:51;3.80;99.90
11079;DHT22;5592;49.234;7.268;2024-01-07T09:57:18;3.70;99.90
11079;DHT22;5592;49.234;7.268;2024-01-07T09:59:45;3.80;99.90
11079;DHT22;5592;49.234;7.268;2024-01-07T10:02:12;3.80;99.90
11079;DHT22;5592;49.234;7.268;2024-01-07T10:04:37;3.90;99.90
11079;DHT22;5592;49.234;7.268;2024-01-07T10:07:03;3.80;99.90
11079;DHT22;5592;49.234;7.268;2024-01-07T10:09:33;3.90;99.90
11079;DHT22;5592;49.234;7.268;2024-01-07T10:11:59;3.90;99.90
11079;DHT22;5592;49.234;7.268;2024-01-07T10:14:25;3.90;99.90
11079;DHT22;5592;49.234;7.268;2024-01-07T10:16:52;3.90;99.90
11079;DHT22;5592;49.234;7.268;2024-01-07T10:19:24;3.90;99.90
11079;DHT22;5592;49.234;7.268;2024-01-07T10:22:02;3.90;99.90
11079;DHT22;5592;49.234;7.268;2024-01-07T10:24:39;3.90;99.90
11079;DHT22;5592;49.234;7.268;2024-01-07T10:27:05;3.90;99.90
11079;DHT22;5592;49.234;7.268;2024-01-07T10:29:31;3.90;99.90
11079;DHT22;5592;49.234;7.268;2024-01-07T10:32:00;3.90;99.90
11079;DHT22;5592;49.234;7.268;2024-01-07T10:34:36;3.90;99.90
11079;DHT22;5592;49.234;7.268;2024-01-07T10:37:04;3.90;99.90
11079;DHT22;5592;49.234;7.268;2024-01-07T10:39:33;3.90;99.90
11079;DHT22;5592;49.234;7.268;2024-01-07T10:41:59;3.90;99.90
11079;DHT22;5592;49.234;7.268;2024-01-07T10:44:32;3.90;99.90
11079;DHT22;5592;49.234;7.268;2024-01-07T10:46:58;3.90;99.90
11079;DHT22;5592;49.234;7.268;2024-01-07T10:49:27;4.00;99.90
11079;DHT22;5592;49.234;7.268;2024-01-07T10:52:07;3.90;99.90
11079;DHT22;5592;49.234;7.268;2024-01-07T10:54:34;3.90;99.90
11079;DHT22;5592;49.234;7.268;2024-01-07T10:59:32;3.90;99.90
11079;DHT22;5592;49.234;7.268;2024-01-07T11:01:59;3.90;99.90
11079;DHT22;5592;49.234;7.268;2024-01-07T11:04:41;3.90;99.90
11079;DHT22;5592;49.234;7.268;2024-01-07T11:07:35;3.90;99.90
11079;DHT22;5592;49.234;7.268;2024-01-07T11:10:26;3.90;99.90
11079;DHT22;5592;49.234;7.268;2024-01-07T11:12:56;4.00;99.90
11079;DHT22;5592;49.234;7.268;2024-01-07T11:18:17;4.10;99.90
11079;DHT22;5592;49.234;7.268;2024-01-07T11:20:44;4.10;99.90
11079;DHT22;5592;49.234;7.268;2024-01-07T11:23:35;4.10;99.90
11079;DHT22;5592;49.234;7.268;2024-01-07T11:26:03;4.10;99.90
11079;DHT22;5592;49.234;7.268;2024-01-07T11:28:51;4.00;99.90
11079;DHT22;5592;49.234;7.268;2024-01-07T11:31:25;4.10;99.90
11079;DHT22;5592;49.234;7.268;2024-01-07T11:34:06;4.00;99.90
11079;DHT22;5592;49.234;7.268;2024-01-07T11:36:37;4.00;99.90
11079;DHT22;5592;49.234;7.268;2024-01-07T11:39:04;4.00;99.90
11079;DHT22;5592;49.234;7.268;2024-01-07T11:41:34;4.00;99.90
11079;DHT22;5592;49.234;7.268;2024-01-07T11:44:01;4.00;99.90
11079;DHT22;5592;49.234;7.268;2024-01-07T11:46:28;4.00;99.90
11079;DHT22;5592;49.234;7.268;2024-01-07T11:48:55;4.00;99.90
11079;DHT22;5592;49.234;7.268;2024-01-07T11:51:26;3.90;99.90
11079;DHT22;5592;49.234;7.268;2024-01-07T11:53:52;3.90;99.90
11079;DHT22;5592;49.234;7.268;2024-01-07T11:56:18;3.90;99.90
11079;DHT22;5592;49.234;7.268;2024-01-07T11:58:44;3.90;99.90
11079;DHT22;5592;49.234;7.268;2024-01-07T12:01:09;3.90;99.90
11079;DHT22;5592;49.234;7.268;2024-01-07T12:03:35;3.90;99.90
11079;DHT22;5592;49.234;7.268;2024-01-07T12:06:01;3.90;99.90
11079;DHT22;5592;49.234;7.268;2024-01-07T12:08:26;4.00;99.90
11079;DHT22;5592;49.234;7.268;2024-01-07T12:10:52;4.00;99.90
11079;DHT22;5592;49.234;7.268;2024-01-07T12:13:18;4.10;99.90
11079;DHT22;5592;49.234;7.268;2024-01-07T12:15:45;4.10;99.90
11079;DHT22;5592;49.234;7.268;2024-01-07T12:18:11;4.20;99.90
11079;DHT22;5592;49.234;7.268;2024-01-07T12:20:36;4.20;99.90
11079;DHT22;5592;49.234;7.268;2024-01-07T12:23:09;4.20;99.90
11079;DHT22;5592;49.234;7.268;2024-01-07T12:25:35;4.30;99.90
11079;DHT22;5592;49.234;7.268;2024-01-07T12:28:01;4.20;99.90
11079;DHT22;5592;49.234;7.268;2024-01-07T12:30:27;4.20;99.90
11079;DHT22;5592;49.234;7.268;2024-01-07T12:32:53;4.30;99.90
11079;DHT22;5592;49.234;7.268;2024-01-07T12:35:19;4.30;99.90
11079;DHT22;5592;49.234;7.268;2024-01-07T12:37:44;4.40;99.90
11079;DHT22;5592;49.234;7.268;2024-01-07T12:40:11;4.40;99.90
11079;DHT22;5592;49.234;7.268;2024-01-07T12:42:40;4.40;99.90
11079;DHT22;5592;49.234;7.268;2024-01-07T12:45:13;4.30;99.90
11079;DHT22;5592;49.234;7.268;2024-01-07T12:47:40;4.20;99.90
11079;DHT22;5592;49.234;7.268;2024-01-07T12:50:06;4.20;99.90
11079;DHT22;5592;49.234;7.268;2024-01-07T12:52:34;4.20;99.90
11079;DHT22;5592;49.234;7.268;2024-01-07T12:55:00;4.20;99.90
11079;DHT22;5592;49.234;7.268;2024-01-07T12:57:25;4.20;99.90
11079;DHT22;5592;49.234;7.268;2024-01-07T12:59:51;4.20;99.90
11079;DHT22;5592;49.234;7.268;2024-01-07T13:02:16;4.20;99.90
11079;DHT22;5592;49.234;7.268;2024-01-07T13:04:42;4.10;99.90
11079;DHT22;5592;49.234;7.268;2024-01-07T13:07:07;4.10;99.90
11079;DHT22;5592;49.234;7.268;2024-01-07T13:09:33;4.10;99.90
11079;DHT22;5592;49.234;7.268;2024-01-07T13:11:59;4.10;99.90
11079;DHT22;5592;49.234;7.268;2024-01-07T13:14:24;4.20;99.90
11079;DHT22;5592;49.234;7.268;2024-01-07T13:16:50;4.30;99.90
11079;DHT22;5592;49.234;7.268;2024-01-07T13:19:16;4.40;99.90
11079;DHT22;5592;49.234;7.268;2024-01-07T13:21:42;4.60;99.90
11079;DHT22;5592;49.234;7.268;2024-01-07T13:24:07;4.60;99.90
11079;DHT22;5592;49.234;7.268;2024-01-07T13:26:33;4.60;99.90
11079;DHT22;5592;49.234;7.268;2024-01-07T13:28:58;4.50;99.90
11079;DHT22;5592;49.234;7.268;2024-01-07T13:31:24;4.50;99.90
11079;DHT22;5592;49.234;7.268;2024-01-07T13:33:49;4.50;99.90
11079;DHT22;5592;49.234;7.268;2024-01-07T13:36:15;4.40;99.90
11079;DHT22;5592;49.234;7.268;2024-01-07T13:38:41;4.40;99.90
11079;DHT22;5592;49.234;7.268;2024-01-07T13:41:10;4.30;99.90
11079;DHT22;5592;49.234;7.268;2024-01-07T13:43:36;4.30;99.90
11079;DHT22;5592;49.234;7.268;2024-01-07T13:46:03;4.30;99.90
11079;DHT22;5592;49.234;7.268;2024-01-07T13:48:31;4.30;99.90
11079;DHT22;5592;49.234;7.268;2024-01-07T13:50:57;4.30;99.90
11079;DHT22;5592;49.234;7.268;2024-01-07T13:53:23;4.10;99.90
11079;DHT22;5592;49.234;7.268;2024-01-07T13:55:49;4.10;99.90
11079;DHT22;5592;49.234;7.268;2024-01-07T13:58:14;4.10;99.90
11079;DHT22;5592;49.234;7.268;2024-01-07T14:00:40;3.90;99.90
11079;DHT22;5592;49.234;7.268;2024-01-07T14:03:07;4.00;99.90
11079;DHT22;5592;49.234;7.268;2024-01-07T14:05:32;3.90;99.90
11079;DHT22;5592;49.234;7.268;2024-01-07T14:07:58;3.90;99.90
11079;DHT22;5592;49.234;7.268;2024-01-07T14:10:23;3.90;99.90
11079;DHT22;5592;49.234;7.268;2024-01-07T14:12:49;3.90;99.90
11079;DHT22;5592;49.234;7.268;2024-01-07T14:15:14;3.80;99.90
11079;DHT22;5592;49.234;7.268;2024-01-07T14:17:40;3.60;99.90
11079;DHT22;5592;49.234;7.268;2024-01-07T14:20:09;3.50;99.90
11079;DHT22;5592;49.234;7.268;2024-01-07T14:22:35;3.40;99.90
11079;DHT22;5592;49.234;7.268;2024-01-07T14:25:01;3.40;99.90
11079;DHT22;5592;49.234;7.268;2024-01-07T14:27:26;3.30;99.90
11079;DHT22;5592;49.234;7.268;2024-01-07T14:29:52;3.20;99.90
11079;DHT22;5592;49.234;7.268;2024-01-07T14:32:18;3.20;99.90
11079;DHT22;5592;49.234;7.268;2024-01-07T14:34:43;3.20;99.90
11079;DHT22;5592;49.234;7.268;2024-01-07T14:37:10;3.20;99.90
11079;DHT22;5592;49.234;7.268;2024-01-07T14:39:36;3.20;99.90
11079;DHT22;5592;49.234;7.268;2024-01-07T14:42:02;3.20;99.90
11079;DHT22;5592;49.234;7.268;2024-01-07T14:44:28;3.20;99.90
11079;DHT22;5592;49.234;7.268;2024-01-07T14:46:54;3.20;99.90
11079;DHT22;5592;49.234;7.268;2024-01-07T14:49:19;3.20;99.90
11079;DHT22;5592;49.234;7.268;2024-01-07T14:51:45;3.20;99.90
11079;DHT22;5592;49.234;7.268;2024-01-07T14:54:10;3.20;99.90
11079;DHT22;5592;49.234;7.268;2024-01-07T14:56:36;3.20;99.90
11079;DHT22;5592;49.234;7.268;2024-01-07T14:59:01;3.20;99.90
11079;DHT22;5592;49.234;7.268;2024-01-07T15:01:27;3.10;99.90
11079;DHT22;5592;49.234;7.268;2024-01-07T15:03:54;3.10;99.90
11079;DHT22;5592;49.234;7.268;2024-01-07T15:06:19;3.20;99.90
11079;DHT22;5592;49.234;7.268;2024-01-07T15:08:45;3.20;99.90
11079;DHT22;5592;49.234;7.268;2024-01-07T15:11:13;3.20;99.90
11079;DHT22;5592;49.234;7.268;2024-01-07T15:13:38;3.10;99.90
11079;DHT22;5592;49.234;7.268;2024-01-07T15:16:05;3.10;99.90
11079;DHT22;5592;49.234;7.268;2024-01-07T15:18:31;3.10;99.90
11079;DHT22;5592;49.234;7.268;2024-01-07T15:20:57;3.10;99.90
11079;DHT22;5592;49.234;7.268;2024-01-07T15:23:22;3.10;99.90
11079;DHT22;5592;49.234;7.268;2024-01-07T15:25:48;3.00;99.90
11079;DHT22;5592;49.234;7.268;2024-01-07T15:28:13;3.00;99.90
11079;DHT22;5592;49.234;7.268;2024-01-07T15:30:39;3.00;99.90
11079;DHT22;5592;49.234;7.268;2024-01-07T15:33:05;3.00;99.90
11079;DHT22;5592;49.234;7.268;2024-01-07T15:35:30;3.00;99.90
11079;DHT22;5592;49.234;7.268;2024-01-07T15:37:56;3.00;99.90
11079;DHT22;5592;49.234;7.268;2024-01-07T15:40:23;2.90;99.90
11079;DHT22;5592;49.234;7.268;2024-01-07T15:42:49;2.90;99.90
11079;DHT22;5592;49.234;7.268;2024-01-07T15:45:15;2.90;99.90
11079;DHT22;5592;49.234;7.268;2024-01-07T15:47:40;2.90;99.90
11079;DHT22;5592;49.234;7.268;2024-01-07T15:50:08;2.90;99.90
11079;DHT22;5592;49.234;7.268;2024-01-07T15:52:35;2.80;99.90
11079;DHT22;5592;49.234;7.268;2024-01-07T15:55:01;2.70;99.90
11079;DHT22;5592;49.234;7.268;2024-01-07T15:57:27;2.70;99.90
11079;DHT22;5592;49.234;7.268;2024-01-07T15:59:53;2.60;99.90
11079;DHT22;5592;49.234;7.268;2024-01-07T16:02:18;2.50;99.90